Time;durP1;ratioP1;P1;durP2;ratioP2;P2;SDS_P1;SDS_P2;PMS_P1;PMS_P2;Temp;Humidity;BMP_temperature;BMP_pressure;BME280_temperature;BME280_humidity;BME280_pressure;Samples;Min_cycle;Max_cycle;Signal;HPM_P1;HPM_P2
2021/01/17 00:02:06;;;;;;;38.53;32.00;;;;;;;;;;5072420;28;20983;-74
2021/01/17 00:04:52;;;;;;;40.57;31.33;;;;;;;;;;5072444;28;20510;-74
2021/01/17 00:07:36;;;;;;;40.07;32.07;;;;;;;;;;5072154;28;20476;-74
2021/01/17 00:10:22;;;;;;;38.03;31.13;;;;;;;;;;5072404;28;20625;-74
2021/01/17 00:13:07;;;;;;;36.30;31.43;;;;;;;;;;5072213;28;20205;-74
2021/01/17 00:15:51;;;;;;;37.37;30.77;;;;;;;;;;5072173;28;20250;-73
2021/01/17 00:18:36;;;;;;;41.53;32.10;;;;;;;;;;5072220;28;20424;-73
2021/01/17 00:21:21;;;;;;;43.60;33.10;;;;;;;;;;5072245;28;20515;-73
2021/01/17 00:24:06;;;;;;;39.07;31.57;;;;;;;;;;5072125;28;20469;-73
2021/01/17 00:26:51;;;;;;;39.80;32.60;;;;;;;;;;5071619;28;20235;-73
2021/01/17 00:29:35;;;;;;;40.30;32.87;;;;;;;;;;5072071;28;20421;-73
2021/01/17 00:32:20;;;;;;;40.47;32.93;;;;;;;;;;5072195;28;20299;-73
2021/01/17 00:35:05;;;;;;;40.63;32.77;;;;;;;;;;5072055;28;20200;-73
2021/01/17 00:37:51;;;;;;;39.97;32.87;;;;;;;;;;5071529;28;20200;-73
2021/01/17 00:40:35;;;;;;;45.47;32.97;;;;;;;;;;5072006;28;20517;-73
2021/01/17 00:43:20;;;;;;;41.03;31.97;;;;;;;;;;5072119;28;20295;-73
2021/01/17 00:46:04;;;;;;;41.10;32.10;;;;;;;;;;5071097;28;20199;-74
2021/01/17 00:48:49;;;;;;;40.97;32.80;;;;;;;;;;5071745;28;20207;-73
2021/01/17 00:51:42;;;;;;;40.77;32.60;;;;;;;;;;5071619;28;20220;-73
2021/01/17 00:54:27;;;;;;;52.78;43.38;;;;;;;;;;5070617;28;20801;-73
2021/01/17 00:57:11;;;;;;;47.13;35.67;;;;;;;;;;5071396;28;20204;-73
2021/01/17 00:59:56;;;;;;;45.27;34.50;;;;;;;;;;5071440;28;20224;-73
2021/01/17 01:02:41;;;;;;;45.63;34.40;;;;;;;;;;5071489;28;20227;-73
2021/01/17 01:05:25;;;;;;;43.17;33.67;;;;;;;;;;5071141;28;20232;-73
2021/01/17 01:08:10;;;;;;;42.20;33.27;;;;;;;;;;5070989;28;20324;-73
2021/01/17 01:10:55;;;;;;;41.27;32.33;;;;;;;;;;5071033;28;20220;-73
2021/01/17 01:13:39;;;;;;;45.00;33.80;;;;;;;;;;5071454;28;20674;-73
2021/01/17 01:16:24;;;;;;;44.27;33.13;;;;;;;;;;5070894;28;20413;-73
2021/01/17 01:19:08;;;;;;;41.27;33.03;;;;;;;;;;5071398;28;20239;-73
2021/01/17 01:21:53;;;;;;;42.87;31.93;;;;;;;;;;5071666;28;20201;-73
2021/01/17 01:24:37;;;;;;;42.77;32.37;;;;;;;;;;5071057;28;20473;-73
2021/01/17 01:27:22;;;;;;;42.37;32.73;;;;;;;;;;5070737;28;20582;-73
2021/01/17 01:30:07;;;;;;;43.40;33.17;;;;;;;;;;5070948;28;20220;-74
2021/01/17 01:32:52;;;;;;;40.23;32.60;;;;;;;;;;5071232;28;20205;-73
2021/01/17 01:35:36;;;;;;;42.43;32.87;;;;;;;;;;5071382;28;20239;-74
2021/01/17 01:38:21;;;;;;;47.33;33.63;;;;;;;;;;5071298;28;20612;-73
2021/01/17 01:41:05;;;;;;;45.73;33.33;;;;;;;;;;5070665;28;20270;-73
2021/01/17 01:43:50;;;;;;;45.90;33.80;;;;;;;;;;5070927;28;20457;-74
2021/01/17 01:46:37;;;;;;;50.77;34.67;;;;;;;;;;5070565;28;20671;-73
2021/01/17 01:49:22;;;;;;;50.43;35.47;;;;;;;;;;5070834;28;20203;-73
2021/01/17 01:52:06;;;;;;;53.60;35.53;;;;;;;;;;5070866;28;20192;-73
2021/01/17 01:54:51;;;;;;;51.73;36.60;;;;;;;;;;5071040;28;20200;-73
2021/01/17 01:57:35;;;;;;;53.50;35.47;;;;;;;;;;5070223;28;20248;-73
2021/01/17 02:00:21;;;;;;;54.07;35.83;;;;;;;;;;5070859;28;20271;-74
2021/01/17 02:03:06;;;;;;;54.40;35.10;;;;;;;;;;5070610;28;20201;-73
2021/01/17 02:05:50;;;;;;;56.77;35.83;;;;;;;;;;5070679;28;20286;-74
2021/01/17 02:08:46;;;;;;;53.73;36.27;;;;;;;;;;5070804;28;20821;-73
2021/01/17 02:11:40;;;;;;;58.77;37.10;;;;;;;;;;5070604;28;20245;-73
2021/01/17 02:14:34;;;;;;;53.23;35.60;;;;;;;;;;5070771;28;20438;-74
2021/01/17 02:17:19;;;;;;;59.50;36.70;;;;;;;;;;5070767;28;20232;-73
2021/01/17 02:20:06;;;;;;;55.03;36.73;;;;;;;;;;5074531;28;20270;-74
2021/01/17 02:22:58;;;;;;;59.80;38.27;;;;;;;;;;5074399;28;20697;-74
2021/01/17 02:25:44;;;;;;;50.20;35.00;;;;;;;;;;5074539;28;20208;-73
2021/01/17 02:28:28;;;;;;;65.40;41.33;;;;;;;;;;5074195;28;20809;-74
2021/01/17 02:31:14;;;;;;;90.25;56.00;;;;;;;;;;5072978;28;20431;-73
2021/01/17 02:33:59;;;;;;;68.43;41.13;;;;;;;;;;5074854;28;20208;-73
2021/01/17 02:36:48;;;;;;;69.50;39.23;;;;;;;;;;5073857;28;20258;-74
2021/01/17 02:39:39;;;;;;;58.97;35.60;;;;;;;;;;5074222;28;20433;-73
2021/01/17 02:42:24;;;;;;;59.77;35.90;;;;;;;;;;5073959;28;20211;-74
2021/01/17 02:45:09;;;;;;;62.73;36.00;;;;;;;;;;5074060;28;20563;-74
2021/01/17 02:47:53;;;;;;;58.33;35.10;;;;;;;;;;5073851;28;20418;-74
2021/01/17 02:50:38;;;;;;;63.90;35.13;;;;;;;;;;5074148;28;20435;-74
2021/01/17 02:53:25;;;;;;;55.53;33.63;;;;;;;;;;5074104;28;20330;-74
2021/01/17 02:56:12;;;;;;;56.10;35.27;;;;;;;;;;5073937;28;20456;-74
2021/01/17 02:58:58;;;;;;;50.53;33.73;;;;;;;;;;5074037;28;20439;-74
2021/01/17 03:01:44;;;;;;;56.10;35.33;;;;;;;;;;5074012;28;20437;-74
2021/01/17 03:04:32;;;;;;;57.47;35.60;;;;;;;;;;5073691;28;20217;-74
2021/01/17 03:07:18;;;;;;;53.23;35.20;;;;;;;;;;5073398;28;20848;-74
2021/01/17 03:10:05;;;;;;;50.37;33.53;;;;;;;;;;5073731;28;20491;-74
2021/01/17 03:12:49;;;;;;;59.97;35.70;;;;;;;;;;5073698;28;20568;-74
2021/01/17 03:15:35;;;;;;;59.67;36.17;;;;;;;;;;5073551;28;20420;-74
2021/01/17 03:18:19;;;;;;;61.03;35.03;;;;;;;;;;5073304;28;20549;-74
2021/01/17 03:21:04;;;;;;;52.80;33.47;;;;;;;;;;5073183;28;20481;-74
2021/01/17 03:23:49;;;;;;;56.80;34.67;;;;;;;;;;5073261;28;20745;-74
2021/01/17 03:26:33;;;;;;;59.30;35.93;;;;;;;;;;5072890;28;20224;-74
2021/01/17 03:29:18;;;;;;;49.73;34.03;;;;;;;;;;5072060;28;20337;-74
2021/01/17 03:32:03;;;;;;;53.57;33.53;;;;;;;;;;5073165;28;20212;-74
2021/01/17 03:34:48;;;;;;;53.83;33.80;;;;;;;;;;5073301;28;20575;-74
2021/01/17 03:37:33;;;;;;;52.73;34.10;;;;;;;;;;5072936;28;20689;-74
2021/01/17 03:40:18;;;;;;;52.83;33.37;;;;;;;;;;5072924;28;20838;-74
2021/01/17 03:43:02;;;;;;;52.80;34.13;;;;;;;;;;5073206;28;20794;-74
2021/01/17 03:45:47;;;;;;;56.17;33.57;;;;;;;;;;5072671;28;20477;-74
2021/01/17 03:48:32;;;;;;;49.90;32.83;;;;;;;;;;5073072;28;20204;-74
2021/01/17 03:51:17;;;;;;;51.30;31.90;;;;;;;;;;5072991;28;20823;-74
2021/01/17 03:54:01;;;;;;;47.73;31.23;;;;;;;;;;5072928;28;20444;-74
2021/01/17 03:56:47;;;;;;;47.90;30.87;;;;;;;;;;5072516;28;20197;-74
2021/01/17 03:59:31;;;;;;;47.10;29.60;;;;;;;;;;5073070;28;20220;-74
2021/01/17 04:02:15;;;;;;;42.43;29.40;;;;;;;;;;5072730;28;20946;-74
2021/01/17 04:05:01;;;;;;;43.23;29.10;;;;;;;;;;5072485;28;20465;-74
2021/01/17 04:07:45;;;;;;;55.70;39.13;;;;;;;;;;5071560;28;20415;-74
2021/01/17 04:10:30;;;;;;;45.40;31.93;;;;;;;;;;5072714;28;20315;-74
2021/01/17 04:13:14;;;;;;;43.03;29.63;;;;;;;;;;5072522;28;20424;-74
2021/01/17 04:15:59;;;;;;;49.27;30.73;;;;;;;;;;5071611;28;20449;-75
2021/01/17 04:18:44;;;;;;;45.00;29.63;;;;;;;;;;5072397;28;20215;-74
2021/01/17 04:21:29;;;;;;;43.60;29.13;;;;;;;;;;5072762;28;20679;-74
2021/01/17 04:24:14;;;;;;;43.37;29.13;;;;;;;;;;5072015;28;20996;-74
2021/01/17 04:26:58;;;;;;;35.80;26.87;;;;;;;;;;5071800;28;20581;-74
2021/01/17 04:29:43;;;;;;;37.93;26.23;;;;;;;;;;5072124;28;20316;-74
2021/01/17 04:32:27;;;;;;;39.57;28.07;;;;;;;;;;5071935;28;20200;-74
2021/01/17 04:35:13;;;;;;;40.77;28.20;;;;;;;;;;5072220;28;20466;-74
2021/01/17 04:37:59;;;;;;;42.90;27.37;;;;;;;;;;5071644;28;20236;-74
2021/01/17 04:40:44;;;;;;;38.20;27.17;;;;;;;;;;5071493;28;20224;-73
2021/01/17 04:43:30;;;;;;;39.30;27.07;;;;;;;;;;5072125;28;20205;-74
2021/01/17 04:46:15;;;;;;;35.97;26.37;;;;;;;;;;5071410;28;20196;-74
2021/01/17 04:49:00;;;;;;;45.87;28.43;;;;;;;;;;5071877;28;20200;-74
2021/01/17 04:51:49;;;;;;;45.53;28.63;;;;;;;;;;5071827;28;20698;-74
2021/01/17 04:54:35;;;;;;;45.17;29.17;;;;;;;;;;5071611;28;20201;-74
2021/01/17 04:57:23;;;;;;;37.30;27.23;;;;;;;;;;5071223;28;20204;-74
2021/01/17 05:00:09;;;;;;;42.00;28.00;;;;;;;;;;5071579;28;20308;-74
2021/01/17 05:03:00;;;;;;;35.30;26.60;;;;;;;;;;5071654;28;20200;-74
2021/01/17 05:05:47;;;;;;;42.87;27.83;;;;;;;;;;5071327;28;20251;-73
2021/01/17 05:08:33;;;;;;;43.23;28.00;;;;;;;;;;5071472;28;20208;-74
2021/01/17 05:11:27;;;;;;;40.77;27.93;;;;;;;;;;5071835;28;20224;-74
2021/01/17 05:14:12;;;;;;;44.20;27.60;;;;;;;;;;5071641;28;20212;-74
2021/01/17 05:16:57;;;;;;;44.47;28.30;;;;;;;;;;5070889;28;20315;-74
2021/01/17 05:19:42;;;;;;;45.03;27.63;;;;;;;;;;5071243;28;20688;-74
2021/01/17 05:22:28;;;;;;;46.50;29.07;;;;;;;;;;5071239;28;20204;-74
2021/01/17 05:25:13;;;;;;;39.27;28.10;;;;;;;;;;5071000;28;20232;-74
2021/01/17 05:27:58;;;;;;;45.73;27.87;;;;;;;;;;5070755;28;20192;-74
2021/01/17 05:30:44;;;;;;;38.00;26.90;;;;;;;;;;5071064;28;20572;-73
2021/01/17 05:33:30;;;;;;;41.73;26.67;;;;;;;;;;5070968;28;20594;-74
2021/01/17 05:36:15;;;;;;;44.73;28.40;;;;;;;;;;5070942;28;20240;-74
2021/01/17 05:39:01;;;;;;;39.83;27.10;;;;;;;;;;5070981;28;20205;-74
2021/01/17 05:41:45;;;;;;;42.67;26.77;;;;;;;;;;5071242;28;20744;-74
2021/01/17 05:44:31;;;;;;;65.18;40.50;;;;;;;;;;5070298;28;20430;-74
2021/01/17 05:47:20;;;;;;;45.93;29.17;;;;;;;;;;5070532;28;20640;-74
2021/01/17 05:50:06;;;;;;;46.37;28.97;;;;;;;;;;5070666;28;20247;-74
2021/01/17 05:52:52;;;;;;;46.73;28.43;;;;;;;;;;5070172;28;20246;-74
2021/01/17 05:55:37;;;;;;;42.63;27.23;;;;;;;;;;5070779;28;20844;-74
2021/01/17 05:58:22;;;;;;;41.63;26.33;;;;;;;;;;5070797;28;20246;-74
2021/01/17 06:01:16;;;;;;;38.03;26.03;;;;;;;;;;5067685;28;20727;-74
2021/01/17 06:04:08;;;;;;;35.40;25.87;;;;;;;;;;5070781;28;21023;-74
2021/01/17 06:06:54;;;;;;;41.43;26.63;;;;;;;;;;5070216;28;20843;-74
2021/01/17 06:09:39;;;;;;;42.37;26.43;;;;;;;;;;5070775;28;20220;-74
2021/01/17 06:12:30;;;;;;;43.47;27.03;;;;;;;;;;5065816;28;20336;-73
2021/01/17 06:15:15;;;;;;;40.27;26.73;;;;;;;;;;5070620;28;20205;-74
2021/01/17 06:18:03;;;;;;;38.17;24.17;;;;;;;;;;5066179;28;20351;-74
2021/01/17 06:20:48;;;;;;;36.90;25.10;;;;;;;;;;5050885;28;20217;-74
2021/01/17 06:23:35;;;;;;;34.77;23.97;;;;;;;;;;5049092;28;20255;-74
2021/01/17 06:26:23;;;;;;;41.50;26.03;;;;;;;;;;5048789;28;20264;-74
2021/01/17 06:29:08;;;;;;;39.70;26.03;;;;;;;;;;5055526;28;20225;-74
2021/01/17 06:31:53;;;;;;;37.87;24.97;;;;;;;;;;5062672;28;20224;-74
2021/01/17 06:34:42;;;;;;;42.57;26.67;;;;;;;;;;5069318;28;20663;-73
2021/01/17 06:37:28;;;;;;;37.30;25.77;;;;;;;;;;5049928;28;20340;-73
2021/01/17 06:40:13;;;;;;;42.37;26.83;;;;;;;;;;5050356;28;20244;-74
2021/01/17 06:42:58;;;;;;;41.70;27.07;;;;;;;;;;5050519;28;20196;-74
2021/01/17 06:45:43;;;;;;;38.73;24.83;;;;;;;;;;5050089;28;20295;-73
2021/01/17 06:48:27;;;;;;;46.13;26.20;;;;;;;;;;5065341;28;20240;-74
2021/01/17 06:51:16;;;;;;;41.27;26.23;;;;;;;;;;5070322;28;20205;-73
2021/01/17 06:54:01;;;;;;;38.13;26.40;;;;;;;;;;5070928;28;20213;-73
2021/01/17 06:56:46;;;;;;;42.77;26.93;;;;;;;;;;5069899;28;20307;-74
2021/01/17 06:59:34;;;;;;;61.03;28.07;;;;;;;;;;5069818;28;20220;-74
2021/01/17 07:02:43;;;;;;;52.47;26.77;;;;;;;;;;5070092;28;20204;-74
2021/01/17 07:05:44;;;;;;;54.97;26.97;;;;;;;;;;5065741;28;20268;-74
2021/01/17 07:08:36;;;;;;;48.53;26.77;;;;;;;;;;5073874;28;20227;-74
2021/01/17 07:11:22;;;;;;;54.87;27.30;;;;;;;;;;5073725;28;20244;-74
2021/01/17 07:14:07;;;;;;;58.00;29.10;;;;;;;;;;5073637;28;20224;-73
2021/01/17 07:16:54;;;;;;;93.77;34.43;;;;;;;;;;5073149;28;20220;-73
2021/01/17 07:19:46;;;;;;;57.30;28.43;;;;;;;;;;5073336;28;20236;-73
2021/01/17 07:22:32;;;;;;;137.48;47.70;;;;;;;;;;5072838;28;20399;-74
2021/01/17 07:25:18;;;;;;;111.57;37.07;;;;;;;;;;5055843;28;20229;-73
2021/01/17 07:28:04;;;;;;;94.03;34.80;;;;;;;;;;5053055;28;20667;-74
2021/01/17 07:30:50;;;;;;;75.70;32.83;;;;;;;;;;5053578;28;20225;-74
2021/01/17 07:33:36;;;;;;;147.17;38.93;;;;;;;;;;5060609;28;20617;-74
2021/01/17 07:36:22;;;;;;;66.70;32.13;;;;;;;;;;5072908;28;20203;-74
2021/01/17 07:39:08;;;;;;;60.53;31.00;;;;;;;;;;5057525;28;20225;-74
2021/01/17 07:41:53;;;;;;;63.17;31.30;;;;;;;;;;5053086;28;20292;-74
2021/01/17 07:44:42;;;;;;;91.23;33.90;;;;;;;;;;5053054;28;20287;-74
2021/01/17 07:47:28;;;;;;;122.73;37.90;;;;;;;;;;5067283;28;20561;-74
2021/01/17 07:50:13;;;;;;;116.43;40.53;;;;;;;;;;5064009;28;20252;-74
2021/01/17 07:52:57;;;;;;;115.83;40.13;;;;;;;;;;5052498;28;20251;-73
2021/01/17 07:55:42;;;;;;;152.57;44.07;;;;;;;;;;5063803;28;20250;-74
2021/01/17 07:58:30;;;;;;;138.03;41.73;;;;;;;;;;5072857;28;20239;-73
2021/01/17 08:01:42;;;;;;;141.07;40.07;;;;;;;;;;5055082;28;20562;-74
2021/01/17 08:04:30;;;;;;;140.10;41.20;;;;;;;;;;5052986;28;20296;-74
2021/01/17 08:07:29;;;;;;;177.60;46.83;;;;;;;;;;5070403;28;20722;-74
2021/01/17 08:10:14;;;;;;;167.87;44.07;;;;;;;;;;5052454;28;20252;-73
2021/01/17 08:12:58;;;;;;;199.57;52.73;;;;;;;;;;5052180;28;20281;-74
2021/01/17 08:15:44;;;;;;;238.20;58.07;;;;;;;;;;5064186;28;20229;-73
2021/01/17 08:18:33;;;;;;;183.77;51.83;;;;;;;;;;5070274;28;20273;-72
2021/01/17 08:21:24;;;;;;;123.27;48.97;;;;;;;;;;5069742;28;20208;-75
2021/01/17 08:24:22;;;;;;;126.70;45.87;;;;;;;;;;5064678;28;20686;-77
2021/01/17 08:27:06;;;;;;;155.00;49.40;;;;;;;;;;5056278;28;20224;-76
2021/01/17 08:30:10;;;;;;;123.83;46.67;;;;;;;;;;5052423;28;20225;-79
2021/01/17 08:32:56;;;;;;;86.90;40.40;;;;;;;;;;5068717;28;20247;-79
2021/01/17 08:35:40;;;;;;;94.27;41.27;;;;;;;;;;5061277;28;20200;-78
2021/01/17 08:38:35;;;;;;;87.27;39.07;;;;;;;;;;5071611;28;20266;-79
2021/01/17 08:41:25;;;;;;;116.37;44.27;;;;;;;;;;5061148;28;20217;-71
2021/01/17 08:44:12;;;;;;;81.33;37.33;;;;;;;;;;5070117;28;20208;-74
2021/01/17 08:46:57;;;;;;;120.23;42.60;;;;;;;;;;5070727;28;20200;-74
2021/01/17 08:49:42;;;;;;;111.67;42.57;;;;;;;;;;5065345;28;20245;-73
2021/01/17 08:52:28;;;;;;;132.67;44.90;;;;;;;;;;5069005;28;20212;-72
2021/01/17 08:55:12;;;;;;;146.87;46.20;;;;;;;;;;5071393;28;20582;-72
2021/01/17 08:57:57;;;;;;;171.45;65.00;;;;;;;;;;5070413;28;20485;-73
2021/01/17 09:00:56;;;;;;;163.73;56.20;;;;;;;;;;5071497;28;20233;-75
2021/01/17 09:03:51;;;;;;;144.57;55.37;;;;;;;;;;5070494;28;20680;-76
2021/01/17 09:06:40;;;;;;;129.83;51.93;;;;;;;;;;5070628;28;20209;-74
2021/01/17 09:09:28;;;;;;;126.33;51.43;;;;;;;;;;5071288;28;20255;-76
2021/01/17 09:12:13;;;;;;;117.77;47.20;;;;;;;;;;5057835;28;20244;-73
2021/01/17 09:14:58;;;;;;;110.13;48.23;;;;;;;;;;5051187;28;20323;-73
2021/01/17 09:17:44;;;;;;;94.03;45.23;;;;;;;;;;5056858;28;20212;-75
2021/01/17 09:20:28;;;;;;;123.10;48.97;;;;;;;;;;5060256;28;20730;-75
2021/01/17 09:23:14;;;;;;;89.93;45.00;;;;;;;;;;5071392;28;20239;-75
2021/01/17 09:25:59;;;;;;;96.23;45.77;;;;;;;;;;5070741;28;20769;-75
2021/01/17 09:28:43;;;;;;;124.00;52.20;;;;;;;;;;5069790;28;20282;-72
2021/01/17 09:31:29;;;;;;;105.83;56.17;;;;;;;;;;5071287;28;20252;-71
2021/01/17 09:34:13;;;;;;;109.50;66.03;;;;;;;;;;5070999;28;20609;-71
2021/01/17 09:36:59;;;;;;;99.77;54.97;;;;;;;;;;5051451;28;20249;-72
2021/01/17 09:39:46;;;;;;;100.27;48.70;;;;;;;;;;5050751;28;20228;-71
2021/01/17 09:42:31;;;;;;;65.33;37.70;;;;;;;;;;5050947;28;20201;-70
2021/01/17 09:45:15;;;;;;;80.53;40.83;;;;;;;;;;5052625;28;20228;-72
2021/01/17 09:48:00;;;;;;;84.60;42.30;;;;;;;;;;5070205;28;20235;-71
2021/01/17 09:50:45;;;;;;;76.17;37.93;;;;;;;;;;5070724;28;20208;-74
2021/01/17 09:53:30;;;;;;;63.13;34.90;;;;;;;;;;5070794;28;20272;-70
2021/01/17 09:56:15;;;;;;;66.97;34.07;;;;;;;;;;5070297;28;20208;-72
2021/01/17 09:59:01;;;;;;;70.37;39.67;;;;;;;;;;5070194;28;21264;-72
2021/01/17 10:01:46;;;;;;;56.30;31.60;;;;;;;;;;5070596;28;20235;-72
2021/01/17 10:04:30;;;;;;;67.10;33.50;;;;;;;;;;5070717;28;20300;-72
2021/01/17 10:07:16;;;;;;;57.43;32.67;;;;;;;;;;5070275;28;20204;-70
2021/01/17 10:10:07;;;;;;;53.07;30.10;;;;;;;;;;5070559;28;20224;-71
2021/01/17 10:12:52;;;;;;;52.63;30.33;;;;;;;;;;5070494;28;20706;-70
2021/01/17 10:15:38;;;;;;;56.57;31.23;;;;;;;;;;5069911;28;20216;-71
2021/01/17 10:18:23;;;;;;;56.77;34.63;;;;;;;;;;5070467;28;20276;-70
2021/01/17 10:21:07;;;;;;;54.03;34.10;;;;;;;;;;5070722;28;20691;-70
2021/01/17 10:23:52;;;;;;;53.87;31.60;;;;;;;;;;5070305;28;20570;-71
2021/01/17 10:26:37;;;;;;;55.47;31.83;;;;;;;;;;5070038;28;20288;-70
2021/01/17 10:29:23;;;;;;;50.87;32.67;;;;;;;;;;5070635;28;20275;-71
2021/01/17 10:32:08;;;;;;;60.22;33.92;;;;;;;;;;5070358;28;20180;-69
2021/01/17 10:34:53;;;;;;;61.37;33.73;;;;;;;;;;5070456;28;20319;-70
2021/01/17 10:37:37;;;;;;;60.00;34.20;;;;;;;;;;5069297;28;20212;-70
2021/01/17 10:40:25;;;;;;;61.07;34.83;;;;;;;;;;5074116;28;20279;-71
2021/01/17 10:43:10;;;;;;;67.77;38.27;;;;;;;;;;5073427;28;20380;-71
2021/01/17 10:46:01;;;;;;;60.63;34.40;;;;;;;;;;5073267;28;20224;-72
2021/01/17 10:48:47;;;;;;;54.93;31.57;;;;;;;;;;5073988;28;20251;-72
2021/01/17 10:51:35;;;;;;;63.10;29.77;;;;;;;;;;5074039;28;20236;-70
2021/01/17 10:54:21;;;;;;;53.13;27.53;;;;;;;;;;5073987;28;20243;-71
2021/01/17 10:57:06;;;;;;;55.40;25.30;;;;;;;;;;5073457;28;20220;-71
2021/01/17 10:59:54;;;;;;;52.93;29.00;;;;;;;;;;5073769;28;20220;-71
2021/01/17 11:02:39;;;;;;;81.03;46.67;;;;;;;;;;5073899;28;20198;-70
2021/01/17 11:05:27;;;;;;;58.60;32.00;;;;;;;;;;5073453;28;20706;-71
2021/01/17 11:08:11;;;;;;;61.40;35.07;;;;;;;;;;5073058;28;20201;-71
2021/01/17 11:10:56;;;;;;;42.03;19.20;;;;;;;;;;5073585;28;20564;-71
2021/01/17 11:13:41;;;;;;;40.30;16.57;;;;;;;;;;5072418;28;20279;-81
2021/01/17 11:16:32;;;;;;;43.67;18.07;;;;;;;;;;5072531;28;20252;-79
2021/01/17 11:19:18;;;;;;;47.43;19.17;;;;;;;;;;5073305;28;20241;-73
2021/01/17 11:22:03;;;;;;;47.70;17.73;;;;;;;;;;5073091;28;20276;-73
2021/01/17 11:24:47;;;;;;;41.40;18.73;;;;;;;;;;5053497;28;20268;-72
2021/01/17 11:27:35;;;;;;;39.87;16.23;;;;;;;;;;5063164;28;20207;-73
2021/01/17 11:30:24;;;;;;;39.37;15.10;;;;;;;;;;5073364;28;20660;-73
2021/01/17 11:33:10;;;;;;;32.30;13.43;;;;;;;;;;5053431;28;20217;-74
2021/01/17 11:36:01;;;;;;;43.08;19.58;;;;;;;;;;5051783;28;20508;-73
2021/01/17 11:38:46;;;;;;;41.37;17.57;;;;;;;;;;5071296;28;20595;-73
2021/01/17 11:41:32;;;;;;;37.77;17.50;;;;;;;;;;5072422;28;20228;-73
2021/01/17 11:44:17;;;;;;;41.80;15.97;;;;;;;;;;5073004;28;20699;-73
2021/01/17 11:47:02;;;;;;;34.03;13.23;;;;;;;;;;5071463;28;20323;-73
2021/01/17 11:49:47;;;;;;;40.93;16.13;;;;;;;;;;5069501;28;20330;-72
2021/01/17 11:52:32;;;;;;;34.77;13.40;;;;;;;;;;5072586;28;20202;-73
2021/01/17 11:55:19;;;;;;;37.40;12.37;;;;;;;;;;5072997;28;20255;-72
2021/01/17 11:58:08;;;;;;;35.40;11.60;;;;;;;;;;5072520;28;20213;-72
2021/01/17 12:00:53;;;;;;;36.73;11.77;;;;;;;;;;5072765;28;20205;-72
2021/01/17 12:03:38;;;;;;;30.10;11.60;;;;;;;;;;5072522;28;20595;-72
2021/01/17 12:06:23;;;;;;;33.75;12.93;;;;;;;;;;5071601;28;20420;-73
2021/01/17 12:09:09;;;;;;;31.03;11.93;;;;;;;;;;5071606;28;20740;-73
2021/01/17 12:11:53;;;;;;;29.40;12.30;;;;;;;;;;5071243;28;20248;-73
2021/01/17 12:14:38;;;;;;;31.10;12.57;;;;;;;;;;5072824;28;20289;-72
2021/01/17 12:17:22;;;;;;;30.80;12.13;;;;;;;;;;5064685;28;20575;-79
2021/01/17 12:20:07;;;;;;;28.30;11.00;;;;;;;;;;5062643;28;20234;-71
2021/01/17 12:22:51;;;;;;;24.13;9.67;;;;;;;;;;5061367;28;20209;-73
2021/01/17 12:25:37;;;;;;;30.40;10.37;;;;;;;;;;5058990;28;20229;-73
2021/01/17 12:28:21;;;;;;;29.33;9.47;;;;;;;;;;5062382;28;20332;-73
2021/01/17 12:31:08;;;;;;;25.93;9.07;;;;;;;;;;5072232;28;20221;-73
2021/01/17 12:33:53;;;;;;;34.57;10.40;;;;;;;;;;5072129;28;20756;-73
2021/01/17 12:36:38;;;;;;;24.00;9.10;;;;;;;;;;5071737;28;20208;-74
2021/01/17 12:39:23;;;;;;;23.97;8.47;;;;;;;;;;5072032;28;20314;-73
2021/01/17 12:42:08;;;;;;;25.30;8.37;;;;;;;;;;5071867;28;20209;-74
2021/01/17 12:44:52;;;;;;;25.63;8.03;;;;;;;;;;5071904;28;20236;-74
2021/01/17 12:47:38;;;;;;;19.63;8.27;;;;;;;;;;5071515;28;20210;-74
2021/01/17 12:50:22;;;;;;;21.33;7.20;;;;;;;;;;5071873;28;20198;-73
2021/01/17 12:53:07;;;;;;;17.37;7.57;;;;;;;;;;5071844;28;20698;-74
2021/01/17 12:55:52;;;;;;;19.53;7.33;;;;;;;;;;5076899;28;20232;-73
2021/01/17 12:58:37;;;;;;;20.83;6.50;;;;;;;;;;5078019;28;20745;-73
2021/01/17 13:01:22;;;;;;;17.50;5.90;;;;;;;;;;5071787;28;20244;-73
2021/01/17 13:04:06;;;;;;;17.50;6.50;;;;;;;;;;5071447;28;20213;-73
2021/01/17 13:06:51;;;;;;;16.30;6.50;;;;;;;;;;5071159;28;20214;-74
2021/01/17 13:09:36;;;;;;;17.47;5.77;;;;;;;;;;5071655;28;20256;-73
2021/01/17 13:12:21;;;;;;;17.57;5.60;;;;;;;;;;5071504;28;20212;-73
2021/01/17 13:15:07;;;;;;;16.60;4.97;;;;;;;;;;5071641;28;20691;-73
2021/01/17 13:17:51;;;;;;;15.63;4.70;;;;;;;;;;5070714;28;20194;-73
2021/01/17 13:20:36;;;;;;;14.73;4.73;;;;;;;;;;5071322;28;20229;-73
2021/01/17 13:23:20;;;;;;;11.90;4.50;;;;;;;;;;5071254;28;20202;-73
2021/01/17 13:26:05;;;;;;;15.73;5.10;;;;;;;;;;5069706;28;20313;-74
2021/01/17 13:28:49;;;;;;;14.10;4.40;;;;;;;;;;5051068;28;20338;-73
2021/01/17 13:31:35;;;;;;;15.17;3.97;;;;;;;;;;5051212;28;20222;-73
2021/01/17 13:34:19;;;;;;;12.47;3.83;;;;;;;;;;5051010;28;20198;-73
2021/01/17 13:37:03;;;;;;;12.93;3.90;;;;;;;;;;5060977;28;20216;-73
2021/01/17 13:39:48;;;;;;;12.20;3.80;;;;;;;;;;5055958;28;20232;-73
2021/01/17 13:42:33;;;;;;;15.73;4.00;;;;;;;;;;5050908;28;20269;-73
2021/01/17 13:45:18;;;;;;;15.82;5.18;;;;;;;;;;5049716;28;21170;-74
2021/01/17 13:48:04;;;;;;;18.57;5.10;;;;;;;;;;5061830;28;20329;-74
2021/01/17 13:50:49;;;;;;;14.60;4.80;;;;;;;;;;5071015;28;20701;-73
2021/01/17 13:53:33;;;;;;;15.93;4.70;;;;;;;;;;5071092;28;20719;-73
2021/01/17 13:56:18;;;;;;;12.60;4.73;;;;;;;;;;5071265;28;20198;-73
2021/01/17 13:59:02;;;;;;;18.80;5.50;;;;;;;;;;5078130;28;20269;-73
2021/01/17 14:01:47;;;;;;;17.50;4.90;;;;;;;;;;5071837;28;20259;-74
2021/01/17 14:04:32;;;;;;;16.00;4.97;;;;;;;;;;5070925;28;20222;-73
2021/01/17 14:07:17;;;;;;;18.77;4.90;;;;;;;;;;5069492;28;20286;-73
2021/01/17 14:10:03;;;;;;;22.07;6.77;;;;;;;;;;5070884;28;20221;-73
2021/01/17 14:12:48;;;;;;;27.80;12.00;;;;;;;;;;5070767;28;20211;-74
2021/01/17 14:15:32;;;;;;;21.13;7.00;;;;;;;;;;5074642;28;20199;-75
2021/01/17 14:18:16;;;;;;;21.60;5.90;;;;;;;;;;5060745;28;20255;-75
2021/01/17 14:21:02;;;;;;;24.10;8.17;;;;;;;;;;5072763;28;20222;-75
2021/01/17 14:23:46;;;;;;;16.20;5.90;;;;;;;;;;5069801;28;20240;-74
2021/01/17 14:26:33;;;;;;;19.67;6.30;;;;;;;;;;5063667;28;20228;-74
2021/01/17 14:29:18;;;;;;;20.60;5.53;;;;;;;;;;5053853;28;20272;-73
2021/01/17 14:32:03;;;;;;;22.17;6.33;;;;;;;;;;5057562;28;20202;-72
2021/01/17 14:34:47;;;;;;;20.10;5.90;;;;;;;;;;5073801;28;20246;-72
2021/01/17 14:37:33;;;;;;;22.43;6.10;;;;;;;;;;5070828;28;20220;-72
2021/01/17 14:40:18;;;;;;;21.70;6.07;;;;;;;;;;5073366;28;20773;-72
2021/01/17 14:43:02;;;;;;;17.20;5.70;;;;;;;;;;5086889;22;20322;-72
2021/01/17 14:45:47;;;;;;;19.57;5.17;;;;;;;;;;5071498;28;20233;-72
2021/01/17 14:48:31;;;;;;;20.57;6.13;;;;;;;;;;5073822;28;20281;-72
2021/01/17 14:51:19;;;;;;;20.30;5.90;;;;;;;;;;5073799;28;20204;-72
2021/01/17 14:54:06;;;;;;;22.70;5.37;;;;;;;;;;5073935;28;20238;-72
2021/01/17 14:56:51;;;;;;;18.37;5.00;;;;;;;;;;5071106;28;20290;-72
2021/01/17 14:59:35;;;;;;;16.63;6.27;;;;;;;;;;5063598;28;20256;-71
2021/01/17 15:02:20;;;;;;;15.07;5.23;;;;;;;;;;5074108;28;20218;-71
2021/01/17 15:05:05;;;;;;;13.27;4.60;;;;;;;;;;5053837;28;20271;-72
2021/01/17 15:07:49;;;;;;;11.40;4.80;;;;;;;;;;5057010;28;20914;-72
2021/01/17 15:10:34;;;;;;;15.00;5.70;;;;;;;;;;5067219;28;20206;-73
2021/01/17 15:13:19;;;;;;;15.87;5.97;;;;;;;;;;5072584;28;20221;-73
2021/01/17 15:16:05;;;;;;;9.50;3.37;;;;;;;;;;5069241;28;20263;-69
2021/01/17 15:18:50;;;;;;;8.10;3.67;;;;;;;;;;5061271;28;20419;-72
2021/01/17 15:21:34;;;;;;;10.23;4.30;;;;;;;;;;5067480;28;20849;-71
2021/01/17 15:24:19;;;;;;;8.53;2.60;;;;;;;;;;5072693;28;20201;-71
2021/01/17 15:27:06;;;;;;;6.30;2.20;;;;;;;;;;5066751;28;20733;-71
2021/01/17 15:29:50;;;;;;;5.67;2.17;;;;;;;;;;5072332;28;20255;-71
2021/01/17 15:32:35;;;;;;;6.73;2.73;;;;;;;;;;5073175;28;20681;-72
2021/01/17 15:35:19;;;;;;;5.60;2.83;;;;;;;;;;5073218;28;20241;-71
2021/01/17 15:38:04;;;;;;;5.47;2.20;;;;;;;;;;5072515;28;20229;-71
2021/01/17 15:40:49;;;;;;;9.30;3.23;;;;;;;;;;5073183;28;20201;-71
2021/01/17 15:43:34;;;;;;;9.67;3.00;;;;;;;;;;5071675;28;20234;-73
2021/01/17 15:46:19;;;;;;;5.60;2.23;;;;;;;;;;5065662;28;20761;-73
2021/01/17 15:49:03;;;;;;;6.63;2.73;;;;;;;;;;5052987;28;20226;-74
2021/01/17 15:51:48;;;;;;;5.60;2.50;;;;;;;;;;5068161;28;20202;-73
2021/01/17 15:54:32;;;;;;;8.00;2.50;;;;;;;;;;5072102;28;20213;-73
2021/01/17 15:57:16;;;;;;;6.87;2.60;;;;;;;;;;5072393;28;20214;-74
2021/01/17 16:00:03;;;;;;;8.43;3.00;;;;;;;;;;5072901;28;20202;-74
2021/01/17 16:02:47;;;;;;;9.27;2.60;;;;;;;;;;5071639;28;20282;-73
2021/01/17 16:05:32;;;;;;;6.43;2.83;;;;;;;;;;5064265;28;20260;-73
2021/01/17 16:08:18;;;;;;;5.47;2.67;;;;;;;;;;5065030;28;20256;-73